Time;durP1;ratioP1;P1;durP2;ratioP2;P2;SDS_P1;SDS_P2;PMS_P1;PMS_P2;Temp;Humidity;BMP_temperature;BMP_pressure;BME280_temperature;BME280_humidity;BME280_pressure;Samples;Min_cycle;Max_cycle;Signal;HPM_P1;HPM_P2
2023/07/16 00:01:46;;;;;;;5.15;3.42;;;;;;;23.71;61.75;100343.00;15491418;28;20042;-50
2023/07/16 00:09:23;;;;;;;4.53;3.40;;;;;;;23.51;62.28;100336.81;15490622;28;20069;-53
2023/07/16 00:16:58;;;;;;;4.68;3.28;;;;;;;23.52;62.12;100345.84;15432570;28;20512;-52
2023/07/16 00:24:32;;;;;;;5.47;3.83;;;;;;;23.46;62.18;100356.09;15429674;28;20057;-50
2023/07/16 00:32:06;;;;;;;4.88;4.28;;;;;;;23.00;63.29;100367.13;15430393;28;20070;-49
2023/07/16 00:39:40;;;;;;;7.18;4.65;;;;;;;22.94;63.99;100391.03;15431504;28;20114;-49
2023/07/16 00:47:13;;;;;;;6.72;4.97;;;;;;;22.86;64.16;100449.19;15448477;28;20372;-49
2023/07/16 00:54:49;;;;;;;6.47;4.50;;;;;;;22.74;64.01;100478.94;15460457;28;20046;-53
2023/07/16 01:02:23;;;;;;;5.50;4.85;;;;;;;22.42;64.52;100524.25;15426825;28;20268;-50
2023/07/16 01:09:57;;;;;;;7.78;5.53;;;;;;;22.07;66.35;100580.19;15420914;28;20093;-48
2023/07/16 01:17:31;;;;;;;5.47;4.93;;;;;;;22.01;66.96;100625.06;15427580;28;20138;-48
2023/07/16 01:25:48;;;;;;;6.38;4.93;;;;;;;21.75;67.62;100649.09;15425810;28;20157;-51
2023/07/16 01:33:23;;;;;;;6.35;5.15;;;;;;;22.35;65.24;100638.69;15401580;28;20344;-47
2023/07/16 01:40:57;;;;;;;6.90;4.00;;;;;;;22.58;63.21;100637.84;15419089;28;20099;-48
2023/07/16 01:48:34;;;;;;;5.57;3.60;;;;;;;22.61;62.56;100650.91;15468859;28;20133;-48
2023/07/16 01:56:07;;;;;;;5.25;2.50;;;;;;;22.65;61.74;100649.22;15495814;28;20125;-52
2023/07/16 02:03:43;;;;;;;3.20;2.60;;;;;;;22.45;61.94;100630.34;15495649;28;20081;-47
2023/07/16 02:11:16;;;;;;;4.72;2.70;;;;;;;21.32;70.38;100613.41;15483440;28;20046;-45
2023/07/16 02:18:51;;;;;;;6.65;2.72;;;;;;;20.57;75.00;100635.38;15435452;28;20635;-45
2023/07/16 02:26:25;;;;;;;4.63;2.60;;;;;;;20.66;75.33;100622.81;15434644;28;20061;-45
2023/07/16 02:33:59;;;;;;;7.10;3.17;;;;;;;20.47;75.84;100610.84;15416773;28;20042;-46
2023/07/16 02:41:33;;;;;;;4.90;2.70;;;;;;;21.37;72.09;100635.22;15415298;28;20039;-45
2023/07/16 02:49:07;;;;;;;3.00;2.67;;;;;;;21.87;70.34;100623.03;15446138;28;20066;-48
2023/07/16 02:56:40;;;;;;;6.75;2.92;;;;;;;21.60;70.79;100644.59;15415745;28;20047;-50
2023/07/16 03:04:14;;;;;;;3.25;2.85;;;;;;;21.04;72.63;100661.34;15415214;28;20498;-53
2023/07/16 03:11:47;;;;;;;4.47;2.75;;;;;;;21.56;71.25;100605.28;15448244;28;20417;-46
2023/07/16 03:19:22;;;;;;;6.95;3.22;;;;;;;21.56;70.39;100606.09;15474725;28;20073;-53
2023/07/16 03:26:55;;;;;;;3.70;2.92;;;;;;;21.30;72.02;100626.47;15491314;28;20058;-52
2023/07/16 03:34:30;;;;;;;4.40;3.55;;;;;;;21.45;71.09;100576.41;15472361;28;20559;-47
2023/07/16 03:42:03;;;;;;;6.80;3.50;;;;;;;20.86;73.39;100608.22;15472556;28;20523;-52
2023/07/16 03:49:38;;;;;;;6.80;3.63;;;;;;;21.03;73.95;100616.03;15471671;28;20125;-45
2023/07/16 03:57:12;;;;;;;5.68;3.85;;;;;;;21.35;72.73;100621.00;15489427;28;20050;-47
2023/07/16 04:04:47;;;;;;;7.38;4.10;;;;;;;21.41;73.01;100638.19;15472183;28;20357;-49
2023/07/16 04:12:20;;;;;;;6.13;4.18;;;;;;;21.24;73.72;100613.97;15449729;28;20137;-46
2023/07/16 04:19:54;;;;;;;6.47;4.25;;;;;;;21.08;73.41;100637.84;15410191;28;20432;-51
2023/07/16 04:27:27;;;;;;;8.65;4.75;;;;;;;20.85;74.13;100645.63;15409938;28;20050;-55
2023/07/16 04:35:01;;;;;;;7.97;4.85;;;;;;;21.24;73.46;100663.94;15409183;28;20046;-50
2023/07/16 04:42:35;;;;;;;8.68;5.30;;;;;;;20.87;74.24;100653.50;15426201;28;20405;-46
2023/07/16 04:50:09;;;;;;;6.88;4.85;;;;;;;20.87;73.74;100673.41;15408884;28;20062;-47
2023/07/16 04:57:43;;;;;;;6.55;5.32;;;;;;;21.30;73.19;100695.56;15427287;28;20050;-52
2023/07/16 05:05:17;;;;;;;6.38;5.13;;;;;;;20.89;75.10;100714.91;15434669;28;20483;-49
2023/07/16 05:12:51;;;;;;;5.78;4.63;;;;;;;21.01;74.28;100725.47;15510070;23;20422;-55
2023/07/16 05:20:25;;;;;;;8.05;5.10;;;;;;;20.98;75.22;100720.56;15487289;28;20133;-53
2023/07/16 05:27:58;;;;;;;4.95;4.45;;;;;;;21.65;73.19;100710.09;15509209;28;20046;-49
2023/07/16 05:35:33;;;;;;;6.78;3.90;;;;;;;22.10;71.50;100724.47;15504569;28;20065;-48
2023/07/16 05:43:05;;;;;;;6.45;3.90;;;;;;;22.22;70.64;100732.31;15503650;28;20050;-49
2023/07/16 05:50:40;;;;;;;5.63;3.88;;;;;;;21.93;72.78;100738.56;15503657;28;20538;-55
2023/07/16 05:58:13;;;;;;;7.35;3.90;;;;;;;22.49;70.41;100740.00;15502857;28;20058;-51
2023/07/16 06:05:47;;;;;;;5.38;3.40;;;;;;;22.76;68.90;100740.25;15502445;28;20101;-52
2023/07/16 06:13:20;;;;;;;6.82;3.63;;;;;;;22.77;68.51;100736.38;15501748;28;20523;-50
2023/07/16 06:20:55;;;;;;;6.10;3.40;;;;;;;23.04;68.09;100737.75;15501492;28;20454;-51
2023/07/16 06:28:28;;;;;;;7.63;3.28;;;;;;;23.12;66.37;100751.56;15505650;28;20046;-50
2023/07/16 06:36:02;;;;;;;6.25;3.40;;;;;;;23.54;66.29;100765.50;15484623;28;20043;-51
2023/07/16 06:43:35;;;;;;;4.20;2.92;;;;;;;24.21;63.79;100763.38;15500473;28;20042;-48
2023/07/16 06:51:09;;;;;;;9.32;3.15;;;;;;;24.57;61.16;100771.00;15482533;28;20050;-54
2023/07/16 06:58:42;;;;;;;3.53;2.50;;;;;;;24.48;59.74;100770.06;15500176;28;20069;-50
2023/07/16 07:06:17;;;;;;;7.00;2.83;;;;;;;24.22;61.96;100792.44;15494142;28;20038;-54
2023/07/16 07:13:50;;;;;;;4.28;2.42;;;;;;;24.17;60.19;100767.84;15495440;28;20038;-49
2023/07/16 07:21:26;;;;;;;3.22;2.38;;;;;;;24.27;59.61;100795.09;15450947;28;20057;-49
2023/07/16 07:28:59;;;;;;;5.43;2.85;;;;;;;24.65;60.05;100805.97;15496619;28;20049;-50
2023/07/16 07:36:33;;;;;;;5.60;2.67;;;;;;;24.45;59.74;100814.59;15452404;28;20123;-47
2023/07/16 07:44:06;;;;;;;3.88;2.40;;;;;;;25.51;56.14;100821.84;15481195;28;20534;-50
2023/07/16 07:51:40;;;;;;;4.40;2.38;;;;;;;25.15;57.34;100828.91;15491700;28;20053;-47
2023/07/16 07:59:13;;;;;;;5.28;2.53;;;;;;;24.84;57.37;100822.38;15458402;28;20166;-53
2023/07/16 08:06:47;;;;;;;3.50;1.80;;;;;;;24.11;55.33;100851.34;15487961;28;20051;-50
2023/07/16 08:14:20;;;;;;;3.90;1.73;;;;;;;24.02;55.91;100851.19;15486156;28;20045;-51
2023/07/16 08:21:56;;;;;;;2.38;1.60;;;;;;;24.50;51.89;100852.91;15498670;28;20046;-49
2023/07/16 08:29:29;;;;;;;4.90;1.88;;;;;;;24.98;49.34;100866.31;15484994;28;20077;-50
2023/07/16 08:37:04;;;;;;;2.88;1.65;;;;;;;25.47;49.16;100868.38;15493801;28;20137;-46
2023/07/16 08:44:38;;;;;;;4.40;1.90;;;;;;;26.68;48.12;100863.94;15494043;28;20133;-50
2023/07/16 08:52:14;;;;;;;3.85;1.52;;;;;;;26.61;46.29;100880.06;15476910;28;20515;-50
2023/07/16 08:59:49;;;;;;;3.53;1.70;;;;;;;27.11;46.99;100877.13;15493647;28;20093;-50
2023/07/16 09:07:23;;;;;;;5.60;2.30;;;;;;;26.21;47.23;100873.63;15491441;28;20050;-54
2023/07/16 09:14:57;;;;;;;3.45;2.17;;;;;;;26.16;46.93;100881.97;15493738;28;20043;-49
2023/07/16 09:22:31;;;;;;;5.93;2.17;;;;;;;26.31;46.44;100880.81;15475622;28;20046;-51
2023/07/16 09:30:05;;;;;;;4.38;2.00;;;;;;;27.33;46.27;100872.66;15492157;28;20047;-51
2023/07/16 09:37:40;;;;;;;5.18;2.25;;;;;;;26.57;47.63;100892.84;15475600;28;20038;-52
2023/07/16 09:45:18;;;;;;;3.85;1.92;;;;;;;25.90;48.13;100887.28;15491860;28;20134;-49
2023/07/16 09:52:53;;;;;;;4.07;2.33;;;;;;;26.57;44.20;100894.78;15501278;28;20070;-47
2023/07/16 10:00:28;;;;;;;8.23;1.83;;;;;;;26.37;46.18;100905.13;15485417;28;20046;-52
2023/07/16 10:08:03;;;;;;;4.95;2.05;;;;;;;27.75;42.83;100895.97;15499270;28;20051;-48
2023/07/16 10:15:36;;;;;;;4.88;2.08;;;;;;;27.36;43.33;100894.06;15488361;28;20524;-50
2023/07/16 10:23:15;;;;;;;3.05;1.75;;;;;;;28.90;42.46;100874.28;15501155;28;20042;-50
2023/07/16 10:30:51;;;;;;;;;;;;;;;28.57;40.65;100893.38;15502125;28;20077;-51
2023/07/16 10:38:25;;;;;;;5.55;2.00;;;;;;;29.44;40.46;100903.03;15483810;28;20025;-52
2023/07/16 10:45:58;;;;;;;5.30;2.17;;;;;;;27.73;43.03;100911.22;15480768;28;20054;-52
2023/07/16 10:53:32;;;;;;;4.55;2.10;;;;;;;27.75;41.41;100898.75;15491918;28;20056;-51
2023/07/16 11:01:05;;;;;;;3.15;2.10;;;;;;;27.24;44.38;100902.13;15486497;28;20085;-49
2023/07/16 11:08:40;;;;;;;3.58;1.88;;;;;;;26.63;45.77;100902.63;15504726;23;20100;-60
2023/07/16 11:16:13;;;;;;;3.78;2.00;;;;;;;26.07;45.48;100903.94;15548204;28;20060;-53
2023/07/16 11:23:48;;;;;;;4.90;1.83;;;;;;;28.26;40.36;100891.63;15555498;28;20572;-56
2023/07/16 11:31:21;;;;;;;3.55;1.88;;;;;;;28.65;33.94;100879.56;15556607;28;20042;-51
2023/07/16 11:38:55;;;;;;;4.53;1.75;;;;;;;29.43;33.71;100892.31;15538883;28;20069;-51
2023/07/16 11:46:33;;;;;;;2.97;1.50;;;;;;;30.27;30.82;100898.75;15534587;28;20042;-56
2023/07/16 11:54:08;;;;;;;3.60;1.50;;;;;;;27.97;34.09;100898.56;15531244;28;20045;-51
2023/07/16 12:01:41;;;;;;;4.13;1.42;;;;;;;27.94;34.60;100899.25;15535218;28;20065;-54
2023/07/16 12:09:15;;;;;;;2.33;1.40;;;;;;;27.94;33.54;100901.19;15504172;28;20046;-55
2023/07/16 12:16:48;;;;;;;4.22;1.73;;;;;;;28.59;33.13;100897.47;15552178;28;20074;-53
2023/07/16 12:24:22;;;;;;;4.50;1.88;;;;;;;28.71;30.70;100908.63;15556277;28;20068;-50
2023/07/16 12:31:55;;;;;;;4.20;1.67;;;;;;;29.48;30.68;100911.47;15538218;28;20403;-51
2023/07/16 12:39:30;;;;;;;3.83;2.00;;;;;;;29.56;29.60;100907.03;15538263;28;20046;-51
2023/07/16 12:47:05;;;;;;;2.65;1.50;;;;;;;28.94;32.63;100911.97;15555725;28;20153;-51
2023/07/16 12:54:39;;;;;;;5.13;1.65;;;;;;;27.92;32.52;100912.53;15554511;28;20388;-49
2023/07/16 13:02:12;;;;;;;4.75;1.75;;;;;;;29.58;30.41;100894.50;15554681;28;20103;-56
2023/07/16 13:09:47;;;;;;;5.03;1.77;;;;;;;30.66;27.50;100899.34;15536286;28;20053;-58
2023/07/16 13:17:20;;;;;;;4.40;1.77;;;;;;;29.34;27.49;100910.88;15493172;28;20046;-58
2023/07/16 13:24:54;;;;;;;4.20;1.60;;;;;;;28.96;28.88;100906.16;15498937;28;20133;-57
2023/07/16 13:32:27;;;;;;;2.58;1.60;;;;;;;29.20;27.85;100913.88;15493953;28;20047;-57
2023/07/16 13:40:02;;;;;;;5.78;1.33;;;;;;;29.12;28.80;100921.06;15490833;28;20049;-49
2023/07/16 13:47:35;;;;;;;2.55;1.30;;;;;;;29.23;31.18;100927.03;15505190;28;20093;-57
2023/07/16 13:55:10;;;;;;;5.25;1.55;;;;;;;28.60;27.92;100936.94;15503693;28;20129;-56
2023/07/16 14:02:45;;;;;;;8.35;3.90;;;;;;;29.47;26.14;100943.84;15503519;28;20046;-57
2023/07/16 14:10:20;;;;;;;5.00;1.33;;;;;;;28.95;27.56;100940.44;15507326;28;20037;-55
2023/07/16 14:17:53;;;;;;;5.18;1.70;;;;;;;28.92;27.16;100936.38;15547341;28;20050;-58
2023/07/16 14:25:27;;;;;;;4.32;1.60;;;;;;;28.37;27.92;100944.59;15553531;28;20045;-59
2023/07/16 14:33:04;;;;;;;3.15;1.40;;;;;;;28.53;27.81;100947.66;15557053;28;20058;-57
2023/07/16 14:40:39;;;;;;;5.55;1.58;;;;;;;28.33;28.49;100949.91;15549932;28;20058;-57
2023/07/16 14:48:11;;;;;;;5.45;1.73;;;;;;;28.24;27.81;100940.81;15543641;28;20065;-56
2023/07/16 14:55:49;;;;;;;5.03;1.88;;;;;;;28.94;27.99;100941.56;15559339;28;20042;-58
2023/07/16 15:03:22;;;;;;;4.78;1.30;;;;;;;28.13;27.32;100909.16;15553569;28;20053;-57
2023/07/16 15:10:56;;;;;;;4.10;1.63;;;;;;;28.71;27.45;100924.38;15549506;28;20042;-58
2023/07/16 15:18:29;;;;;;;5.07;1.30;;;;;;;28.38;27.82;100915.81;15551193;28;20045;-57
2023/07/16 15:26:05;;;;;;;4.15;1.50;;;;;;;27.93;29.08;100932.66;15531999;28;20050;-58
2023/07/16 15:33:38;;;;;;;3.53;1.35;;;;;;;28.51;28.03;100916.81;15556677;28;20069;-57
2023/07/16 15:41:12;;;;;;;4.88;1.90;;;;;;;28.67;27.97;100917.91;15552734;28;20038;-57
2023/07/16 15:48:46;;;;;;;4.00;1.75;;;;;;;28.58;27.44;100915.16;15539557;28;20079;-58
2023/07/16 15:56:22;;;;;;;2.58;1.45;;;;;;;28.20;29.19;100926.84;15547291;28;20042;-58
2023/07/16 16:03:55;;;;;;;4.53;1.80;;;;;;;27.92;28.56;100922.75;15554386;28;20045;-58
2023/07/16 16:11:29;;;;;;;4.60;1.63;;;;;;;28.53;28.76;100920.84;15555012;28;20407;-59
2023/07/16 16:19:03;;;;;;;3.63;1.83;;;;;;;28.25;27.40;100934.16;15555619;28;20092;-58
2023/07/16 16:26:37;;;;;;;4.30;1.90;;;;;;;28.03;27.74;100939.84;15555582;28;20395;-58
2023/07/16 16:34:10;;;;;;;5.68;1.77;;;;;;;27.44;28.64;100946.47;15555419;28;20501;-57
2023/07/16 16:41:46;;;;;;;4.45;1.88;;;;;;;27.88;28.41;100944.66;15554012;28;20384;-55
2023/07/16 16:49:19;;;;;;;7.93;1.80;;;;;;;27.92;28.22;100940.13;15536984;28;20104;-58
2023/07/16 16:56:54;;;;;;;3.78;1.70;;;;;;;27.73;29.09;100939.59;15553706;28;20041;-49
2023/07/16 17:04:26;;;;;;;5.38;1.90;;;;;;;27.95;29.02;100942.25;15554614;28;20140;-53
2023/07/16 17:12:01;;;;;;;4.25;1.75;;;;;;;27.94;28.89;100950.88;15561527;23;20050;-51
2023/07/16 17:19:34;;;;;;;4.53;1.88;;;;;;;28.12;28.26;100955.28;15548221;28;20058;-51
2023/07/16 17:27:09;;;;;;;4.90;2.22;;;;;;;27.50;27.83;100957.34;15549075;28;20070;-51
2023/07/16 17:34:42;;;;;;;4.10;2.00;;;;;;;26.59;29.78;100962.19;15547060;28;20069;-52
2023/07/16 17:42:17;;;;;;;3.78;1.73;;;;;;;26.83;29.63;100966.56;15545474;28;20042;-47
2023/07/16 17:49:50;;;;;;;5.68;2.10;;;;;;;26.88;30.37;100963.66;15545510;28;20471;-49
2023/07/16 17:57:26;;;;;;;3.90;1.80;;;;;;;26.52;30.13;100966.47;15547413;28;20100;-47
2023/07/16 18:04:59;;;;;;;5.22;2.00;;;;;;;26.53;30.78;100979.13;15561552;28;20108;-50
2023/07/16 18:12:33;;;;;;;4.45;2.13;;;;;;;26.90;31.16;100989.75;15529196;28;20105;-53
2023/07/16 18:20:09;;;;;;;5.43;1.92;;;;;;;26.62;30.83;100983.56;15495532;28;20057;-51
2023/07/16 18:27:44;;;;;;;5.47;2.10;;;;;;;26.61;32.42;100983.88;15477417;28;20057;-49
2023/07/16 18:35:18;;;;;;;5.07;2.13;;;;;;;26.50;33.26;100990.78;15492821;28;20444;-48
2023/07/16 18:42:58;;;;;;;5.50;2.42;;;;;;;26.18;34.28;100998.88;15493820;28;20038;-48
2023/07/16 18:50:31;;;;;;;4.45;2.28;;;;;;;26.24;35.62;101005.06;15495489;28;20423;-47
2023/07/16 18:58:05;;;;;;;4.38;2.05;;;;;;;26.10;36.04;101013.34;15492365;28;20051;-50
2023/07/16 19:05:38;;;;;;;4.43;2.50;;;;;;;25.85;36.84;101025.72;15494030;28;20109;-49
2023/07/16 19:13:12;;;;;;;6.60;2.55;;;;;;;25.55;36.86;101032.56;15496114;28;20053;-47
2023/07/16 19:20:46;;;;;;;4.47;1.90;;;;;;;25.44;37.53;101029.22;15492257;28;20514;-46
2023/07/16 19:28:21;;;;;;;5.60;2.17;;;;;;;25.15;38.91;101037.69;15492532;28;20115;-49
2023/07/16 19:35:58;;;;;;;3.60;2.00;;;;;;;24.88;39.93;101046.63;15491835;28;20518;-46
2023/07/16 19:43:32;;;;;;;4.25;2.50;;;;;;;24.47;41.18;101057.38;15490301;28;20488;-53
2023/07/16 19:51:05;;;;;;;7.93;2.88;;;;;;;24.10;41.65;101061.66;15490550;28;20054;-52
2023/07/16 19:58:40;;;;;;;5.65;2.90;;;;;;;23.86;43.30;101067.16;15488479;28;20046;-46
2023/07/16 20:06:14;;;;;;;4.97;2.90;;;;;;;23.69;45.00;101066.81;15470242;28;20055;-47
2023/07/16 20:13:48;;;;;;;6.40;2.65;;;;;;;23.40;45.25;101064.03;15491516;28;20051;-48
2023/07/16 20:21:22;;;;;;;4.75;2.70;;;;;;;23.09;47.17;101068.97;15487638;28;20141;-48
2023/07/16 20:28:58;;;;;;;7.35;3.30;;;;;;;22.87;46.17;101070.19;15504079;28;20056;-50
2023/07/16 20:36:31;;;;;;;5.97;3.10;;;;;;;22.56;48.05;101066.81;15471378;28;20050;-46
2023/07/16 20:44:05;;;;;;;7.32;2.70;;;;;;;22.45;46.31;101068.00;15471943;28;20069;-47
2023/07/16 20:51:39;;;;;;;6.88;3.10;;;;;;;22.19;47.89;101069.19;15484939;28;20042;-48
2023/07/16 20:59:14;;;;;;;8.18;2.90;;;;;;;21.75;49.21;101080.81;15472559;28;20046;-52
2023/07/16 21:06:47;;;;;;;6.60;2.80;;;;;;;21.56;50.08;101083.28;15476687;28;20038;-47
2023/07/16 21:14:21;;;;;;;10.05;2.70;;;;;;;21.50;49.99;101079.75;15473868;28;20049;-46
2023/07/16 21:21:54;;;;;;;6.90;2.97;;;;;;;21.28;49.41;101085.47;15449336;28;20480;-50
2023/07/16 21:29:28;;;;;;;5.22;3.10;;;;;;;21.11;48.58;101084.91;15428082;28;20365;-47
2023/07/16 21:37:01;;;;;;;6.55;2.80;;;;;;;21.00;49.06;101081.34;15471844;28;20130;-48
2023/07/16 21:44:36;;;;;;;4.90;2.63;;;;;;;20.89;50.38;101088.72;15467288;28;20360;-52
2023/07/16 21:52:09;;;;;;;5.45;2.72;;;;;;;20.69;51.27;101096.84;15481410;28;20046;-50
2023/07/16 21:59:43;;;;;;;9.50;2.80;;;;;;;20.44;50.57;101104.94;15490936;28;20046;-47
2023/07/16 22:07:17;;;;;;;8.40;3.13;;;;;;;20.53;51.07;101108.81;15485755;28;20038;-54
2023/07/16 22:14:52;;;;;;;7.82;3.88;;;;;;;20.47;51.51;101102.53;15536314;28;20046;-48
2023/07/16 22:22:25;;;;;;;10.73;4.38;;;;;;;20.47;51.90;101118.00;15527107;28;20043;-48
2023/07/16 22:29:59;;;;;;;;;;;;;;;20.32;52.44;101097.78;15494759;28;20050;-51
2023/07/16 22:37:31;;;;;;;6.78;3.50;;;;;;;20.36;52.57;101117.97;15462041;28;19922;-50
2023/07/16 22:45:07;;;;;;;7.88;3.22;;;;;;;20.34;53.75;101117.44;15455362;28;20097;-53
2023/07/16 22:52:40;;;;;;;8.65;3.78;;;;;;;20.33;52.93;101121.25;15452545;28;20046;-49
2023/07/16 23:00:15;;;;;;;10.45;3.78;;;;;;;20.09;53.11;101117.28;15454345;28;20057;-52
2023/07/16 23:07:48;;;;;;;8.57;3.85;;;;;;;20.12;54.10;101123.03;15489659;23;20049;-60
2023/07/16 23:15:22;;;;;;;8.50;3.78;;;;;;;19.96;55.12;101129.50;15558514;28;20046;-58
2023/07/16 23:22:55;;;;;;;7.43;3.67;;;;;;;20.05;55.38;101132.53;15586655;28;20045;-57
2023/07/16 23:30:31;;;;;;;;;;;;;;;20.03;53.89;101135.53;15563844;28;20490;-59
2023/07/16 23:38:04;;;;;;;10.18;3.75;;;;;;;19.84;50.88;101137.03;15557809;28;19925;-59
2023/07/16 23:45:38;;;;;;;;;;;;;;;20.01;50.31;101134.16;15540038;28;20060;-59
2023/07/16 23:53:11;;;;;;;7.57;3.47;;;;;;;20.22;50.58;101135.91;15538920;28;19928;-57
